createdAt,value
2018-05-04T00:09:18.044Z,22.6
2018-05-04T00:19:17.766Z,22.6
2018-05-04T00:29:16.874Z,22.6
2018-05-04T00:39:16.069Z,22.6
2018-05-04T00:49:15.547Z,22.6
2018-05-04T00:59:14.804Z,22.6
2018-05-04T01:09:14.128Z,22.6
2018-05-04T01:19:12.988Z,22.6
2018-05-04T01:29:12.343Z,22.5
2018-05-04T01:39:11.055Z,22.5
2018-05-04T01:49:10.962Z,22.4
2018-05-04T01:59:10.056Z,22.4
2018-05-04T02:09:09.162Z,22.4
2018-05-04T02:19:08.421Z,22.3
2018-05-04T02:29:07.104Z,22.3
2018-05-04T02:39:06.391Z,22.3
2018-05-04T02:49:06.800Z,22.3
2018-05-04T02:59:04.864Z,22.3
2018-05-04T03:09:04.409Z,22.1
2018-05-04T03:19:03.625Z,22
2018-05-04T03:29:02.770Z,21.9
2018-05-04T03:39:02.619Z,21.9
2018-05-04T03:49:01.169Z,21.9
2018-05-04T03:59:00.245Z,21.9
2018-05-04T04:09:00.051Z,21.9
2018-05-04T04:18:58.906Z,21.9
2018-05-04T04:28:59.079Z,21.9
2018-05-04T04:38:57.529Z,21.8
2018-05-04T04:48:57.107Z,21.8
2018-05-04T04:58:56.119Z,21.8
2018-05-04T05:08:54.971Z,21.7
2018-05-04T05:18:53.878Z,21.7
2018-05-04T05:28:53.034Z,21.7
2018-05-04T05:38:52.722Z,21.8
2018-05-04T05:48:52.574Z,22
2018-05-04T05:58:51.040Z,22.1
2018-05-04T06:08:50.111Z,22.3
2018-05-04T06:18:49.875Z,22.1
2018-05-04T06:28:50.745Z,22.1
2018-05-04T06:38:48.083Z,22.3
2018-05-04T06:48:47.638Z,22.5
2018-05-04T06:58:47.184Z,22.7
2018-05-04T07:08:45.355Z,22.9
2018-05-04T07:18:44.782Z,23.1
2018-05-04T07:28:44.115Z,23.3
2018-05-04T07:38:43.372Z,23.4
2018-05-04T07:48:43.411Z,23.5
2018-05-04T07:58:41.795Z,23.6
2018-05-04T08:08:40.957Z,23.7
2018-05-04T08:18:40.303Z,23.8
2018-05-04T08:28:40.631Z,24
2018-05-04T08:38:38.308Z,24
2018-05-04T08:48:37.454Z,24.1
2018-05-04T08:58:36.804Z,24.1
2018-05-04T09:08:35.936Z,24.1
2018-05-04T09:18:35.289Z,24.3
2018-05-04T09:28:34.798Z,24.4
2018-05-04T09:38:34.414Z,24.4
2018-05-04T09:48:33.226Z,24.4
2018-05-04T09:58:32.412Z,24.6
2018-05-04T10:08:31.230Z,24.6
2018-05-04T10:18:30.958Z,24.6
2018-05-04T10:28:31.319Z,24.6
2018-05-04T10:38:28.968Z,24.7
2018-05-04T10:48:28.557Z,24.6
2018-05-04T10:58:27.504Z,24.6
2018-05-04T11:08:26.642Z,24.6
2018-05-04T11:18:25.983Z,24.6
2018-05-04T11:28:25.633Z,24.6
2018-05-04T11:38:24.477Z,24.7
2018-05-04T11:48:24.115Z,24.9
2018-05-04T11:58:23.195Z,25
2018-05-04T12:08:22.533Z,24.9
2018-05-04T12:18:21.249Z,24.9
2018-05-04T12:28:20.402Z,24.8
2018-05-04T12:38:19.591Z,24.8
2018-05-04T12:48:19.886Z,24.8
2018-05-04T12:58:18.193Z,24.7
2018-05-04T13:08:17.250Z,24.8
2018-05-04T13:18:16.618Z,24.7
2018-05-04T13:28:16.057Z,24.7
2018-05-04T13:38:15.477Z,24.6
2018-05-04T13:48:15.099Z,24.4
2018-05-04T13:58:13.390Z,24.3
2018-05-04T14:08:12.910Z,24.1
2018-05-04T14:18:12.141Z,24
2018-05-04T14:28:11.318Z,23.9
2018-05-04T14:38:10.992Z,23.8
2018-05-04T14:48:09.874Z,23.6
2018-05-04T14:58:09.165Z,23.5
2018-05-04T15:08:08.268Z,23.4
2018-05-04T15:18:07.172Z,23.4
2018-05-04T15:28:06.937Z,23.2
2018-05-04T15:38:05.991Z,23.1
2018-05-04T15:48:05.043Z,23.2
2018-05-04T15:58:04.567Z,23.2
2018-05-04T16:08:03.548Z,23.2
2018-05-04T16:18:02.883Z,23.1
2018-05-04T16:28:03.022Z,23.1
2018-05-04T16:38:01.537Z,23.1
2018-05-04T16:48:01.191Z,23.1
2018-05-04T16:57:59.698Z,23.1
2018-05-04T17:07:58.677Z,23.1
2018-05-04T17:17:57.871Z,23.1
2018-05-04T17:27:57.435Z,23.1
2018-05-04T17:37:56.723Z,23.1
2018-05-04T17:47:55.751Z,23.2
2018-05-04T17:57:54.983Z,23.2
2018-05-04T18:07:54.061Z,23.3
2018-05-04T18:17:53.602Z,23.3
2018-05-04T18:27:52.577Z,23.2
2018-05-04T18:37:51.859Z,23.2
2018-05-04T18:47:50.805Z,23.1
2018-05-04T18:57:50.587Z,23
2018-05-04T19:07:49.599Z,22.9
2018-05-04T19:17:48.914Z,22.9
2018-05-04T19:27:48.022Z,22.9
2018-05-04T19:37:47.440Z,23
2018-05-04T19:47:46.252Z,23.1
2018-05-04T19:57:45.628Z,23.1
2018-05-04T20:07:45.563Z,23.1
2018-05-04T20:17:43.894Z,23
2018-05-04T20:27:43.400Z,22.9
2018-05-04T20:37:42.879Z,22.8
2018-05-04T20:47:42.081Z,22.7
2018-05-04T20:57:41.041Z,22.6
2018-05-04T21:07:40.066Z,22.6
2018-05-04T21:17:39.790Z,22.6
2018-05-04T21:27:38.547Z,22.5
2018-05-04T21:37:37.956Z,22.4
2018-05-04T21:47:37.849Z,22.4
2018-05-04T21:57:36.531Z,22.4
2018-05-04T22:07:36.005Z,22.4
2018-05-04T22:17:34.551Z,22.4
2018-05-04T22:27:33.964Z,22.4
2018-05-04T22:37:33.044Z,22.4
2018-05-04T22:47:32.789Z,22.4
2018-05-04T22:57:31.350Z,22.4
2018-05-04T23:07:31.678Z,22.3
2018-05-04T23:17:30.209Z,22.3
2018-05-04T23:27:29.132Z,22.2
2018-05-04T23:37:28.679Z,22.2
2018-05-04T23:47:27.722Z,22.1
2018-05-04T23:57:26.805Z,22.1
